createdAt,value
2022-12-20T00:04:07.647Z,96443.85
2022-12-20T00:09:39.651Z,96451.09
2022-12-20T00:15:19.516Z,96449.20
2022-12-20T00:20:49.620Z,96442.50
2022-12-20T00:26:18.417Z,96443.83
2022-12-20T00:31:50.704Z,96436.89
2022-12-20T00:34:40.930Z,96432.91
2022-12-20T00:37:29.312Z,96428.06
2022-12-20T00:43:14.235Z,96442.60
2022-12-20T00:46:09.707Z,96445.02
2022-12-20T00:51:46.082Z,96451.22
2022-12-20T00:54:36.375Z,96456.05
2022-12-20T01:00:20.749Z,96444.53
2022-12-20T01:03:10.956Z,96445.36
2022-12-20T01:06:02.136Z,96441.31
2022-12-20T01:08:50.724Z,96439.16
2022-12-20T01:14:22.129Z,96432.20
2022-12-20T01:20:19.912Z,96433.79
2022-12-20T01:28:35.990Z,96425.78
2022-12-20T01:37:07.652Z,96423.08
2022-12-20T01:42:38.336Z,96421.47
2022-12-20T01:48:15.679Z,96418.79
2022-12-20T01:53:56.540Z,96417.42
2022-12-20T01:59:31.962Z,96404.83
2022-12-20T02:05:15.342Z,96399.97
2022-12-20T02:08:03.913Z,96401.34
2022-12-20T02:13:50.123Z,96398.32
2022-12-20T02:19:46.243Z,96385.22
2022-12-20T02:25:43.195Z,96386.80
2022-12-20T02:31:20.619Z,96392.45
2022-12-20T02:34:13.011Z,96395.14
2022-12-20T02:40:04.771Z,96372.62
2022-12-20T02:45:38.191Z,96366.97
2022-12-20T02:51:13.916Z,96355.96
2022-12-20T02:56:51.789Z,96353.27
2022-12-20T03:02:37.795Z,96344.15
2022-12-20T03:08:07.905Z,96331.57
2022-12-20T03:13:41.065Z,96343.34
2022-12-20T03:22:06.225Z,96333.97
2022-12-20T03:27:48.299Z,96329.16
2022-12-20T03:33:30.601Z,96322.19
2022-12-20T03:36:21.931Z,96311.19
2022-12-20T03:39:10.407Z,96309.07
2022-12-20T03:44:51.012Z,96312.26
2022-12-20T03:50:26.646Z,96309.27
2022-12-20T03:55:58.936Z,96312.79
2022-12-20T04:01:30.166Z,96317.35
2022-12-20T04:04:18.929Z,96316.01
2022-12-20T04:09:53.425Z,96301.54
2022-12-20T04:12:41.580Z,96316.85
2022-12-20T04:15:31.118Z,96313.91
2022-12-20T04:21:05.147Z,96302.09
2022-12-20T04:26:57.408Z,96296.70
2022-12-20T04:29:46.056Z,96306.36
2022-12-20T04:32:34.435Z,96308.25
2022-12-20T04:35:26.213Z,96301.28
2022-12-20T04:38:20.812Z,96299.91
2022-12-20T04:41:09.369Z,96305.30
2022-12-20T04:43:59.164Z,96299.10
2022-12-20T04:46:48.427Z,96302.55
2022-12-20T04:52:47.632Z,96302.79
2022-12-20T04:58:20.838Z,96306.27
2022-12-20T05:03:51.807Z,96302.80
2022-12-20T05:09:27.593Z,96288.02
2022-12-20T05:14:57.334Z,96293.69
2022-12-20T05:17:46.264Z,96293.66
2022-12-20T05:20:35.692Z,96285.62
2022-12-20T05:28:55.380Z,96288.83
2022-12-20T05:34:28.531Z,96282.66
2022-12-20T05:40:05.682Z,96277.86
2022-12-20T05:45:46.924Z,96262.25
2022-12-20T05:48:35.337Z,96255.85
2022-12-20T05:51:35.417Z,96260.96
2022-12-20T05:57:06.741Z,96252.09
2022-12-20T05:59:55.395Z,96255.59
2022-12-20T06:05:25.219Z,96254.19
2022-12-20T06:08:17.583Z,96263.86
2022-12-20T06:11:14.499Z,96260.93
2022-12-20T06:16:53.749Z,96272.25
2022-12-20T06:22:26.791Z,96258.33
2022-12-20T06:28:06.820Z,96248.73
2022-12-20T06:30:57.469Z,96262.68
2022-12-20T06:36:33.032Z,96257.64
2022-12-20T06:42:03.631Z,96257.92
2022-12-20T06:50:27.857Z,96259.86
2022-12-20T06:55:57.823Z,96262.02
2022-12-20T07:01:34.444Z,96256.93
2022-12-20T07:04:22.772Z,96255.58
2022-12-20T07:10:10.943Z,96260.33
2022-12-20T07:15:40.544Z,96256.00
2022-12-20T07:18:29.096Z,96250.91
2022-12-20T07:21:19.259Z,96238.56
2022-12-20T07:26:51.744Z,96245.75
2022-12-20T07:32:48.879Z,96240.61
2022-12-20T07:38:36.530Z,96237.65
2022-12-20T07:44:19.558Z,96260.70
2022-12-20T07:47:09.803Z,96247.77
2022-12-20T07:49:59.690Z,96246.70
2022-12-20T07:52:49.530Z,96243.20
2022-12-20T07:58:20.607Z,96251.88
2022-12-20T08:03:59.524Z,96248.23
2022-12-20T08:09:39.242Z,96245.73
2022-12-20T08:12:29.415Z,96243.87
2022-12-20T08:23:26.743Z,96225.70
2022-12-20T08:29:04.190Z,96225.64
2022-12-20T08:34:41.772Z,96222.05
2022-12-20T08:40:13.615Z,96235.20
2022-12-20T08:43:06.727Z,96227.95
2022-12-20T08:48:45.847Z,96226.72
2022-12-20T08:51:36.571Z,96221.94
2022-12-20T08:54:25.641Z,96229.38
2022-12-20T09:00:00.923Z,96241.57
2022-12-20T09:05:33.751Z,96241.95
2022-12-20T09:11:13.013Z,96236.43
2022-12-20T09:16:50.245Z,96235.45
2022-12-20T09:22:23.695Z,96234.73
2022-12-20T09:27:58.638Z,96238.28
2022-12-20T09:33:36.468Z,96239.59
2022-12-20T09:42:01.638Z,96240.78
2022-12-20T09:44:52.202Z,96240.30
2022-12-20T09:47:42.253Z,96239.17
2022-12-20T09:53:26.519Z,96214.92
2022-12-20T09:56:16.936Z,96226.06
2022-12-20T10:01:50.957Z,96216.03
2022-12-20T10:04:45.263Z,96221.20
2022-12-20T10:10:25.154Z,96216.33
2022-12-20T10:16:04.312Z,96200.21
2022-12-20T10:21:52.494Z,96189.20
2022-12-20T10:27:49.107Z,96168.66
2022-12-20T10:33:20.994Z,96156.31
2022-12-20T10:36:26.843Z,96154.06
2022-12-20T10:42:00.429Z,96142.69
2022-12-20T10:47:43.880Z,96132.14
2022-12-20T10:53:41.350Z,96098.95
2022-12-20T10:59:30.447Z,96088.05
2022-12-20T11:05:26.356Z,96072.38
2022-12-20T11:08:46.768Z,96084.28
2022-12-20T11:14:16.590Z,96095.23
2022-12-20T11:17:10.243Z,96095.44
2022-12-20T11:20:30.495Z,96087.83
2022-12-20T11:26:17.328Z,96061.27
2022-12-20T11:32:03.101Z,96055.29
2022-12-20T11:40:34.413Z,96050.48
2022-12-20T11:49:26.446Z,96039.23
2022-12-20T11:55:00.011Z,96024.36
2022-12-20T12:00:41.814Z,96017.77
2022-12-20T12:06:20.895Z,96020.82
2022-12-20T12:09:18.083Z,96027.13
2022-12-20T12:15:01.333Z,96007.19
2022-12-20T12:23:28.869Z,95994.39
2022-12-20T12:35:23.681Z,96001.23
2022-12-20T12:41:35.710Z,95990.70
2022-12-20T12:47:09.438Z,95996.69
2022-12-20T12:49:59.325Z,95989.05
2022-12-20T12:52:52.553Z,95988.88
2022-12-20T12:55:43.778Z,95991.20
2022-12-20T13:01:57.011Z,95997.16
2022-12-20T13:07:45.213Z,95986.55
2022-12-20T13:11:03.256Z,95981.31
2022-12-20T13:13:52.218Z,95972.64
2022-12-20T13:17:10.745Z,95972.27
2022-12-20T13:22:25.097Z,95966.77
2022-12-20T13:28:46.749Z,95943.70
2022-12-20T13:34:37.247Z,95951.22
2022-12-20T13:40:23.044Z,95946.62
2022-12-20T13:43:17.871Z,95948.13
2022-12-20T13:48:56.929Z,95948.98
2022-12-20T13:51:46.780Z,95948.26
2022-12-20T13:54:35.254Z,95946.36
2022-12-20T14:03:06.564Z,95937.19
2022-12-20T14:08:48.901Z,95943.67
2022-12-20T14:14:23.417Z,95936.27
2022-12-20T14:17:20.871Z,95936.47
2022-12-20T14:20:17.020Z,95941.34
2022-12-20T14:23:07.009Z,95938.95
2022-12-20T14:28:48.421Z,95933.95
2022-12-20T14:31:45.042Z,95938.31
2022-12-20T14:34:41.785Z,95937.58
2022-12-20T14:37:33.901Z,95943.92
2022-12-20T14:40:23.483Z,95946.35
2022-12-20T14:46:23.414Z,95942.83
2022-12-20T14:52:15.149Z,95949.95
2022-12-20T14:57:52.753Z,95957.28
2022-12-20T15:03:52.616Z,95933.73
2022-12-20T15:09:30.250Z,95926.42
2022-12-20T15:12:18.990Z,95921.17
2022-12-20T15:20:47.467Z,95939.24
2022-12-20T15:26:26.891Z,95936.23
2022-12-20T15:32:09.806Z,95926.96
2022-12-20T15:34:59.250Z,95923.05
2022-12-20T15:37:48.039Z,95933.80
2022-12-20T15:43:25.780Z,95932.47
2022-12-20T15:49:03.994Z,95927.20
2022-12-20T15:51:58.708Z,95922.83
2022-12-20T15:57:41.448Z,95915.23
2022-12-20T16:00:31.717Z,95911.75
2022-12-20T16:06:11.073Z,95904.94
2022-12-20T16:11:52.377Z,95887.36
2022-12-20T16:14:43.997Z,95883.06
2022-12-20T16:20:21.763Z,95896.67
2022-12-20T16:26:00.404Z,95899.63
2022-12-20T16:31:39.567Z,95892.19
2022-12-20T16:39:58.797Z,95880.85
2022-12-20T16:42:47.771Z,95873.99
2022-12-20T16:45:37.955Z,95882.05
2022-12-20T16:51:25.740Z,95878.55
2022-12-20T16:54:19.765Z,95884.94
2022-12-20T16:59:47.865Z,95889.66
2022-12-20T17:05:47.841Z,95893.15
2022-12-20T17:11:34.742Z,95886.23
2022-12-20T17:14:28.779Z,95880.50
2022-12-20T17:20:23.966Z,95877.80
2022-12-20T17:26:06.830Z,95878.42
2022-12-20T17:34:27.363Z,95874.22
2022-12-20T17:37:17.504Z,95869.27
2022-12-20T17:43:16.034Z,95848.02
2022-12-20T17:46:05.441Z,95841.75
2022-12-20T17:51:57.840Z,95845.65
2022-12-20T17:57:49.884Z,95856.18
2022-12-20T18:04:02.369Z,95861.02
2022-12-20T18:09:07.838Z,95849.86
2022-12-20T18:11:56.517Z,95843.00
2022-12-20T18:17:36.276Z,95830.08
2022-12-20T18:23:17.497Z,95835.58
2022-12-20T18:28:52.041Z,95834.76
2022-12-20T18:31:40.493Z,95832.83
2022-12-20T18:34:31.115Z,95838.36
2022-12-20T18:40:26.181Z,95840.35
2022-12-20T18:46:06.830Z,95835.22
2022-12-20T18:51:48.424Z,95828.94
2022-12-20T18:57:20.079Z,95831.07
2022-12-20T19:03:02.451Z,95838.92
2022-12-20T19:05:55.161Z,95831.39
2022-12-20T19:11:40.172Z,95841.67
2022-12-20T19:14:28.729Z,95849.47
2022-12-20T19:17:17.480Z,95846.16
2022-12-20T19:23:01.056Z,95844.12
2022-12-20T19:26:04.615Z,95850.45
2022-12-20T19:28:50.672Z,95854.92
2022-12-20T19:34:26.997Z,95842.28
2022-12-20T19:40:07.043Z,95839.05
2022-12-20T19:45:45.290Z,95833.97
2022-12-20T19:51:21.735Z,95825.64
2022-12-20T19:54:13.656Z,95827.73
2022-12-20T19:57:02.137Z,95823.80
2022-12-20T19:59:57.224Z,95823.25
2022-12-20T20:05:56.339Z,95811.06
2022-12-20T20:11:33.614Z,95810.67
2022-12-20T20:14:22.087Z,95810.09
2022-12-20T20:22:38.645Z,95820.91
2022-12-20T20:28:18.114Z,95826.99
2022-12-20T20:31:06.675Z,95824.94
2022-12-20T20:33:55.017Z,95832.41
2022-12-20T20:39:28.149Z,95835.89
2022-12-20T20:44:57.972Z,95833.11
2022-12-20T20:50:34.273Z,95846.89
2022-12-20T20:53:25.498Z,95850.62
2022-12-20T20:59:07.136Z,95844.70
2022-12-20T21:01:54.827Z,95849.72
2022-12-20T21:07:26.883Z,95833.23
2022-12-20T21:13:16.737Z,95843.55
2022-12-20T21:16:09.837Z,95855.07
2022-12-20T21:19:09.577Z,95848.54
2022-12-20T21:22:03.457Z,95846.99
2022-12-20T21:27:36.188Z,95858.19
2022-12-20T21:33:17.593Z,95854.14
2022-12-20T21:41:42.517Z,95854.09
2022-12-20T21:50:04.039Z,95838.98
2022-12-20T21:56:05.734Z,95853.95
2022-12-20T21:59:06.055Z,95855.78
2022-12-20T22:01:54.931Z,95867.84
2022-12-20T22:07:33.384Z,95861.75
2022-12-20T22:13:14.172Z,95868.53
2022-12-20T22:16:15.335Z,95871.00
2022-12-20T22:21:58.545Z,95864.41
2022-12-20T22:24:46.825Z,95857.80
2022-12-20T22:30:25.343Z,95850.11
2022-12-20T22:36:05.391Z,95849.05
2022-12-20T22:41:42.661Z,95842.91
2022-12-20T22:44:31.237Z,95840.24
2022-12-20T22:47:19.461Z,95837.92
2022-12-20T22:50:10.331Z,95840.00
2022-12-20T22:53:05.860Z,95846.14
2022-12-20T22:59:06.818Z,95845.09
2022-12-20T23:01:55.441Z,95855.67
2022-12-20T23:07:29.444Z,95858.41
2022-12-20T23:16:24.225Z,95861.13
2022-12-20T23:19:23.451Z,95858.66
2022-12-20T23:22:32.817Z,95863.02
2022-12-20T23:25:25.752Z,95863.86
2022-12-20T23:28:16.344Z,95862.62
2022-12-20T23:33:53.584Z,95868.10
2022-12-20T23:36:53.764Z,95855.29
2022-12-20T23:39:42.260Z,95847.67
2022-12-20T23:45:17.781Z,95833.03
2022-12-20T23:48:08.602Z,95834.48
2022-12-20T23:50:58.043Z,95836.07
2022-12-20T23:53:46.689Z,95830.33
2022-12-20T23:59:22.293Z,95824.73
